sensor_id;sensor_type;location;lat;lon;timestamp;pressure;altitude;pressure_sealevel;temperature;humidity
60871;BME280;46714;50.118;14.462;2023-10-31T00:01:55;96883.59;;;12.42;100.00
60871;BME280;46714;50.118;14.462;2023-10-31T00:04:21;96881.94;;;12.41;100.00
60871;BME280;46714;50.118;14.462;2023-10-31T00:06:46;96870.50;;;12.39;100.00
60871;BME280;46714;50.118;14.462;2023-10-31T00:09:12;96872.72;;;12.37;100.00
60871;BME280;46714;50.118;14.462;2023-10-31T00:11:37;96877.34;;;12.36;100.00
60871;BME280;46714;50.118;14.462;2023-10-31T00:14:03;96869.47;;;12.35;100.00
60871;BME280;46714;50.118;14.462;2023-10-31T00:16:28;96868.94;;;12.33;100.00
60871;BME280;46714;50.118;14.462;2023-10-31T00:18:53;96871.94;;;12.31;100.00
60871;BME280;46714;50.118;14.462;2023-10-31T00:21:19;96871.69;;;12.28;100.00
60871;BME280;46714;50.118;14.462;2023-10-31T00:23:46;96874.16;;;12.24;100.00
60871;BME280;46714;50.118;14.462;2023-10-31T00:26:12;96866.25;;;12.23;100.00
60871;BME280;46714;50.118;14.462;2023-10-31T00:28:37;96873.63;;;12.22;100.00
60871;BME280;46714;50.118;14.462;2023-10-31T00:31:03;96866.81;;;12.20;100.00
60871;BME280;46714;50.118;14.462;2023-10-31T00:33:29;96874.47;;;12.18;100.00
60871;BME280;46714;50.118;14.462;2023-10-31T00:35:54;96866.06;;;12.14;100.00
60871;BME280;46714;50.118;14.462;2023-10-31T00:38:20;96862.47;;;12.13;100.00
60871;BME280;46714;50.118;14.462;2023-10-31T00:40:45;96865.50;;;12.12;100.00
60871;BME280;46714;50.118;14.462;2023-10-31T00:43:11;96863.34;;;12.09;100.00
60871;BME280;46714;50.118;14.462;2023-10-31T00:45:36;96876.16;;;12.08;100.00
60871;BME280;46714;50.118;14.462;2023-10-31T00:48:01;96883.81;;;12.06;100.00
60871;BME280;46714;50.118;14.462;2023-10-31T00:50:27;96918.72;;;12.04;100.00
60871;BME280;46714;50.118;14.462;2023-10-31T00:52:53;96917.63;;;12.00;100.00
60871;BME280;46714;50.118;14.462;2023-10-31T00:55:19;96904.56;;;11.97;100.00
60871;BME280;46714;50.118;14.462;2023-10-31T00:57:44;96920.69;;;11.93;100.00
60871;BME280;46714;50.118;14.462;2023-10-31T01:00:09;96908.41;;;11.91;100.00
60871;BME280;46714;50.118;14.462;2023-10-31T01:02:35;96915.22;;;11.88;100.00
60871;BME280;46714;50.118;14.462;2023-10-31T01:05:00;96908.41;;;11.86;100.00
60871;BME280;46714;50.118;14.462;2023-10-31T01:07:26;96919.31;;;11.86;100.00
60871;BME280;46714;50.118;14.462;2023-10-31T01:09:51;96924.22;;;11.84;100.00
60871;BME280;46714;50.118;14.462;2023-10-31T01:12:16;96914.97;;;11.85;100.00
60871;BME280;46714;50.118;14.462;2023-10-31T01:14:42;96925.88;;;11.85;100.00
60871;BME280;46714;50.118;14.462;2023-10-31T01:17:07;96936.22;;;11.83;100.00
60871;BME280;46714;50.118;14.462;2023-10-31T01:19:32;96922.88;;;11.81;100.00
60871;BME280;46714;50.118;14.462;2023-10-31T01:21:58;96908.97;;;11.83;100.00
60871;BME280;46714;50.118;14.462;2023-10-31T01:24:23;96907.84;;;11.84;100.00
60871;BME280;46714;50.118;14.462;2023-10-31T01:26:49;96899.41;;;11.85;100.00
60871;BME280;46714;50.118;14.462;2023-10-31T01:29:14;96899.41;;;11.85;100.00
60871;BME280;46714;50.118;14.462;2023-10-31T01:31:42;96901.03;;;11.86;100.00
60871;BME280;46714;50.118;14.462;2023-10-31T01:34:08;96908.16;;;11.87;100.00
60871;BME280;46714;50.118;14.462;2023-10-31T01:36:33;96913.84;;;11.86;100.00
60871;BME280;46714;50.118;14.462;2023-10-31T01:38:59;96911.13;;;11.86;100.00
60871;BME280;46714;50.118;14.462;2023-10-31T01:41:25;96918.22;;;11.87;100.00
60871;BME280;46714;50.118;14.462;2023-10-31T01:43:50;96917.16;;;11.88;100.00
60871;BME280;46714;50.118;14.462;2023-10-31T01:46:15;96930.78;;;11.88;100.00
60871;BME280;46714;50.118;14.462;2023-10-31T01:48:41;96929.69;;;11.89;100.00
60871;BME280;46714;50.118;14.462;2023-10-31T01:51:07;96920.94;;;11.87;100.00
60871;BME280;46714;50.118;14.462;2023-10-31T01:53:34;96929.41;;;11.85;100.00
60871;BME280;46714;50.118;14.462;2023-10-31T01:56:01;96932.69;;;11.87;100.00
60871;BME280;46714;50.118;14.462;2023-10-31T01:58:29;96937.03;;;11.88;100.00
60871;BME280;46714;50.118;14.462;2023-10-31T02:00:59;96944.41;;;11.88;100.00
60871;BME280;46714;50.118;14.462;2023-10-31T02:03:25;96940.03;;;11.87;100.00
60871;BME280;46714;50.118;14.462;2023-10-31T02:05:52;96941.41;;;11.84;100.00
60871;BME280;46714;50.118;14.462;2023-10-31T02:08:17;96949.84;;;11.83;100.00
60871;BME280;46714;50.118;14.462;2023-10-31T02:10:42;96956.38;;;11.82;100.00
60871;BME280;46714;50.118;14.462;2023-10-31T02:13:14;96958.31;;;11.81;100.00
60871;BME280;46714;50.118;14.462;2023-10-31T02:15:41;96959.66;;;11.79;100.00
60871;BME280;46714;50.118;14.462;2023-10-31T02:18:06;96959.13;;;11.77;100.00
60871;BME280;46714;50.118;14.462;2023-10-31T02:20:33;96968.13;;;11.77;100.00
60871;BME280;46714;50.118;14.462;2023-10-31T02:22:58;96972.22;;;11.74;100.00
60871;BME280;46714;50.118;14.462;2023-10-31T02:25:24;96973.31;;;11.73;100.00
60871;BME280;46714;50.118;14.462;2023-10-31T02:27:49;96977.13;;;11.72;100.00
60871;BME280;46714;50.118;14.462;2023-10-31T02:30:15;96964.88;;;11.70;100.00
60871;BME280;46714;50.118;14.462;2023-10-31T02:32:40;96974.41;;;11.67;100.00
60871;BME280;46714;50.118;14.462;2023-10-31T02:35:06;96979.31;;;11.65;100.00
60871;BME280;46714;50.118;14.462;2023-10-31T02:37:32;96978.22;;;11.61;100.00
60871;BME280;46714;50.118;14.462;2023-10-31T02:39:57;96984.25;;;11.58;100.00
60871;BME280;46714;50.118;14.462;2023-10-31T02:42:24;96983.16;;;11.54;100.00
60871;BME280;46714;50.118;14.462;2023-10-31T02:44:50;96986.44;;;11.51;100.00
60871;BME280;46714;50.118;14.462;2023-10-31T02:47:15;96989.72;;;11.48;100.00
60871;BME280;46714;50.118;14.462;2023-10-31T02:49:41;96989.19;;;11.46;100.00
60871;BME280;46714;50.118;14.462;2023-10-31T02:52:06;96997.63;;;11.44;100.00
60871;BME280;46714;50.118;14.462;2023-10-31T02:54:31;96992.44;;;11.43;100.00
60871;BME280;46714;50.118;14.462;2023-10-31T02:56:57;96990.25;;;11.40;100.00
60871;BME280;46714;50.118;14.462;2023-10-31T02:59:23;96998.69;;;11.38;100.00
60871;BME280;46714;50.118;14.462;2023-10-31T03:01:48;97003.63;;;11.36;100.00
60871;BME280;46714;50.118;14.462;2023-10-31T03:04:14;96993.81;;;11.35;100.00
60871;BME280;46714;50.118;14.462;2023-10-31T03:06:39;96997.63;;;11.34;100.00
60871;BME280;46714;50.118;14.462;2023-10-31T03:09:06;97009.06;;;11.31;100.00
60871;BME280;46714;50.118;14.462;2023-10-31T03:11:31;97006.34;;;11.31;100.00
60871;BME280;46714;50.118;14.462;2023-10-31T03:13:57;97003.91;;;11.29;100.00
60871;BME280;46714;50.118;14.462;2023-10-31T03:16:23;97012.88;;;11.30;100.00
60871;BME280;46714;50.118;14.462;2023-10-31T03:18:49;97014.78;;;11.29;100.00
60871;BME280;46714;50.118;14.462;2023-10-31T03:21:15;97026.50;;;11.30;100.00
60871;BME280;46714;50.118;14.462;2023-10-31T03:23:46;97024.59;;;11.30;100.00
60871;BME280;46714;50.118;14.462;2023-10-31T03:26:16;97044.47;;;11.31;100.00
60871;BME280;46714;50.118;14.462;2023-10-31T03:28:42;97047.75;;;11.33;100.00
60871;BME280;46714;50.118;14.462;2023-10-31T03:31:08;97051.28;;;11.33;100.00
60871;BME280;46714;50.118;14.462;2023-10-31T03:33:34;97045.00;;;11.33;100.00
60871;BME280;46714;50.118;14.462;2023-10-31T03:35:59;97046.13;;;11.32;100.00
60871;BME280;46714;50.118;14.462;2023-10-31T03:38:25;97045.56;;;11.30;100.00
60871;BME280;46714;50.118;14.462;2023-10-31T03:40:50;97048.56;;;11.28;100.00
60871;BME280;46714;50.118;14.462;2023-10-31T03:43:21;97051.03;;;11.25;100.00
60871;BME280;46714;50.118;14.462;2023-10-31T03:45:47;97056.72;;;11.23;100.00
60871;BME280;46714;50.118;14.462;2023-10-31T03:48:12;97054.25;;;11.22;100.00
60871;BME280;46714;50.118;14.462;2023-10-31T03:50:38;97048.00;;;11.21;100.00
60871;BME280;46714;50.118;14.462;2023-10-31T03:53:03;97047.19;;;11.21;100.00
60871;BME280;46714;50.118;14.462;2023-10-31T03:55:29;97049.91;;;11.21;100.00
60871;BME280;46714;50.118;14.462;2023-10-31T03:57:55;97047.47;;;11.19;100.00
60871;BME280;46714;50.118;14.462;2023-10-31T04:00:20;97045.84;;;11.18;100.00
60871;BME280;46714;50.118;14.462;2023-10-31T04:02:46;97043.94;;;11.19;100.00
60871;BME280;46714;50.118;14.462;2023-10-31T04:05:11;97043.94;;;11.19;100.00
60871;BME280;46714;50.118;14.462;2023-10-31T04:07:37;97049.38;;;11.19;100.00
60871;BME280;46714;50.118;14.462;2023-10-31T04:10:03;97058.63;;;11.18;100.00
60871;BME280;46714;50.118;14.462;2023-10-31T04:12:28;97064.06;;;11.18;100.00
60871;BME280;46714;50.118;14.462;2023-10-31T04:14:54;97059.44;;;11.18;100.00
60871;BME280;46714;50.118;14.462;2023-10-31T04:17:19;97066.78;;;11.18;100.00
60871;BME280;46714;50.118;14.462;2023-10-31T04:19:44;97070.34;;;11.18;100.00
60871;BME280;46714;50.118;14.462;2023-10-31T04:22:10;97062.44;;;11.17;100.00
60871;BME280;46714;50.118;14.462;2023-10-31T04:24:35;97063.25;;;11.17;100.00
60871;BME280;46714;50.118;14.462;2023-10-31T04:27:00;97053.47;;;11.16;100.00
60871;BME280;46714;50.118;14.462;2023-10-31T04:29:26;97057.53;;;11.14;100.00
60871;BME280;46714;50.118;14.462;2023-10-31T04:31:51;97057.81;;;11.12;100.00
60871;BME280;46714;50.118;14.462;2023-10-31T04:34:16;97053.47;;;11.11;100.00
60871;BME280;46714;50.118;14.462;2023-10-31T04:36:42;97057.25;;;11.10;100.00
60871;BME280;46714;50.118;14.462;2023-10-31T04:39:07;97057.25;;;11.10;100.00
60871;BME280;46714;50.118;14.462;2023-10-31T04:41:33;97055.63;;;11.09;100.00
60871;BME280;46714;50.118;14.462;2023-10-31T04:43:58;97062.16;;;11.08;100.00
60871;BME280;46714;50.118;14.462;2023-10-31T04:46:27;97063.25;;;11.07;100.00
60871;BME280;46714;50.118;14.462;2023-10-31T04:48:52;97068.69;;;11.07;100.00
60871;BME280;46714;50.118;14.462;2023-10-31T04:51:18;97073.03;;;11.08;100.00
60871;BME280;46714;50.118;14.462;2023-10-31T04:53:44;97076.84;;;11.07;100.00
60871;BME280;46714;50.118;14.462;2023-10-31T04:56:12;97077.94;;;11.06;100.00
60871;BME280;46714;50.118;14.462;2023-10-31T04:58:39;97074.94;;;11.07;100.00
60871;BME280;46714;50.118;14.462;2023-10-31T05:01:07;97071.41;;;11.07;100.00
60871;BME280;46714;50.118;14.462;2023-10-31T05:03:36;97086.66;;;11.08;100.00
60871;BME280;46714;50.118;14.462;2023-10-31T05:06:02;97089.94;;;11.10;100.00
60871;BME280;46714;50.118;14.462;2023-10-31T05:08:28;97100.81;;;11.10;100.00
60871;BME280;46714;50.118;14.462;2023-10-31T05:10:54;97100.81;;;11.10;100.00
60871;BME280;46714;50.118;14.462;2023-10-31T05:13:19;97091.28;;;11.13;100.00
60871;BME280;46714;50.118;14.462;2023-10-31T05:15:45;97101.38;;;11.12;100.00
60871;BME280;46714;50.118;14.462;2023-10-31T05:18:10;97104.09;;;11.12;100.00
60871;BME280;46714;50.118;14.462;2023-10-31T05:20:35;97108.44;;;11.13;100.00
60871;BME280;46714;50.118;14.462;2023-10-31T05:23:01;97108.44;;;11.13;100.00
60871;BME280;46714;50.118;14.462;2023-10-31T05:25:26;97122.59;;;11.15;100.00
60871;BME280;46714;50.118;14.462;2023-10-31T05:27:52;97123.16;;;11.17;100.00
60871;BME280;46714;50.118;14.462;2023-10-31T05:30:17;97125.63;;;11.19;100.00
60871;BME280;46714;50.118;14.462;2023-10-31T05:32:43;97131.88;;;11.19;100.00
60871;BME280;46714;50.118;14.462;2023-10-31T05:35:09;97134.59;;;11.19;100.00
60871;BME280;46714;50.118;14.462;2023-10-31T05:37:35;97143.59;;;11.20;100.00
60871;BME280;46714;50.118;14.462;2023-10-31T05:40:00;97147.16;;;11.20;100.00
60871;BME280;46714;50.118;14.462;2023-10-31T05:42:26;97162.66;;;11.20;100.00
60871;BME280;46714;50.118;14.462;2023-10-31T05:44:52;97174.91;;;11.22;100.00
60871;BME280;46714;50.118;14.462;2023-10-31T05:47:18;97173.84;;;11.23;100.00
60871;BME280;46714;50.118;14.462;2023-10-31T05:49:44;97169.75;;;11.26;100.00
60871;BME280;46714;50.118;14.462;2023-10-31T05:52:09;97173.03;;;11.28;100.00
60871;BME280;46714;50.118;14.462;2023-10-31T05:54:35;97177.66;;;11.27;100.00
60871;BME280;46714;50.118;14.462;2023-10-31T05:57:00;97191.00;;;11.29;100.00
60871;BME280;46714;50.118;14.462;2023-10-31T05:59:25;97196.44;;;11.29;100.00
60871;BME280;46714;50.118;14.462;2023-10-31T06:01:51;97195.63;;;11.28;100.00
60871;BME280;46714;50.118;14.462;2023-10-31T06:04:16;97189.13;;;11.29;100.00
60871;BME280;46714;50.118;14.462;2023-10-31T06:06:42;97186.38;;;11.29;100.00
60871;BME280;46714;50.118;14.462;2023-10-31T06:09:07;97186.09;;;11.31;100.00
60871;BME280;46714;50.118;14.462;2023-10-31T06:11:35;97190.47;;;11.32;100.00
60871;BME280;46714;50.118;14.462;2023-10-31T06:14:00;97194.81;;;11.33;100.00
60871;BME280;46714;50.118;14.462;2023-10-31T06:16:26;97198.38;;;11.33;100.00
60871;BME280;46714;50.118;14.462;2023-10-31T06:18:51;97213.63;;;11.35;100.00
60871;BME280;46714;50.118;14.462;2023-10-31T06:21:16;97221.81;;;11.35;100.00
60871;BME280;46714;50.118;14.462;2023-10-31T06:23:42;97233.50;;;11.35;100.00
60871;BME280;46714;50.118;14.462;2023-10-31T06:26:10;97245.22;;;11.36;100.00
60871;BME280;46714;50.118;14.462;2023-10-31T06:28:36;97257.22;;;11.40;100.00
60871;BME280;46714;50.118;14.462;2023-10-31T06:31:02;97257.78;;;11.42;100.00
60871;BME280;46714;50.118;14.462;2023-10-31T06:33:28;97256.69;;;11.43;100.00
60871;BME280;46714;50.118;14.462;2023-10-31T06:35:54;97274.69;;;11.44;100.00
60871;BME280;46714;50.118;14.462;2023-10-31T06:38:20;97271.16;;;11.43;100.00
60871;BME280;46714;50.118;14.462;2023-10-31T06:40:45;97281.50;;;11.46;100.00
60871;BME280;46714;50.118;14.462;2023-10-31T06:43:11;97272.22;;;11.47;100.00
60871;BME280;46714;50.118;14.462;2023-10-31T06:45:36;97276.34;;;11.50;100.00
60871;BME280;46714;50.118;14.462;2023-10-31T06:48:02;97278.53;;;11.48;100.00
60871;BME280;46714;50.118;14.462;2023-10-31T06:50:28;97271.97;;;11.49;100.00
60871;BME280;46714;50.118;14.462;2023-10-31T06:52:53;97286.69;;;11.48;100.00
60871;BME280;46714;50.118;14.462;2023-10-31T06:55:19;97291.31;;;11.47;100.00
60871;BME280;46714;50.118;14.462;2023-10-31T06:57:44;97302.75;;;11.44;100.00
60871;BME280;46714;50.118;14.462;2023-10-31T07:00:10;97300.81;;;11.45;100.00
60871;BME280;46714;50.118;14.462;2023-10-31T07:02:37;97300.28;;;11.43;100.00
60871;BME280;46714;50.118;14.462;2023-10-31T07:05:03;97310.34;;;11.42;100.00
60871;BME280;46714;50.118;14.462;2023-10-31T07:07:29;97302.47;;;11.41;100.00
60871;BME280;46714;50.118;14.462;2023-10-31T07:09:54;97305.72;;;11.38;100.00
60871;BME280;46714;50.118;14.462;2023-10-31T07:12:19;97310.91;;;11.39;100.00
60871;BME280;46714;50.118;14.462;2023-10-31T07:14:45;97323.16;;;11.42;100.00
60871;BME280;46714;50.118;14.462;2023-10-31T07:17:10;97332.97;;;11.43;100.00
60871;BME280;46714;50.118;14.462;2023-10-31T07:19:36;97327.53;;;11.43;100.00
60871;BME280;46714;50.118;14.462;2023-10-31T07:22:01;97332.97;;;11.43;100.00
60871;BME280;46714;50.118;14.462;2023-10-31T07:24:27;97333.81;;;11.43;100.00
60871;BME280;46714;50.118;14.462;2023-10-31T07:26:53;97331.66;;;11.45;100.00
60871;BME280;46714;50.118;14.462;2023-10-31T07:29:19;97324.84;;;11.48;100.00
60871;BME280;46714;50.118;14.462;2023-10-31T07:31:44;97328.38;;;11.53;100.00
60871;BME280;46714;50.118;14.462;2023-10-31T07:34:10;97326.47;;;11.49;100.00
60871;BME280;46714;50.118;14.462;2023-10-31T07:36:36;97337.13;;;11.56;100.00
60871;BME280;46714;50.118;14.462;2023-10-31T07:39:02;97344.47;;;11.55;100.00
60871;BME280;46714;50.118;14.462;2023-10-31T07:41:28;97358.38;;;11.53;100.00
60871;BME280;46714;50.118;14.462;2023-10-31T07:43:54;97367.63;;;11.52;100.00
60871;BME280;46714;50.118;14.462;2023-10-31T07:46:20;97382.06;;;11.53;100.00
60871;BME280;46714;50.118;14.462;2023-10-31T07:48:46;97389.69;;;11.51;100.00
60871;BME280;46714;50.118;14.462;2023-10-31T07:51:11;97397.88;;;11.51;100.00
60871;BME280;46714;50.118;14.462;2023-10-31T07:53:36;97403.00;;;11.47;100.00
60871;BME280;46714;50.118;14.462;2023-10-31T07:56:02;97390.22;;;11.48;100.00
60871;BME280;46714;50.118;14.462;2023-10-31T07:58:27;97394.84;;;11.47;100.00
60871;BME280;46714;50.118;14.462;2023-10-31T08:00:53;97395.94;;;11.46;100.00
60871;BME280;46714;50.118;14.462;2023-10-31T08:03:18;97386.38;;;11.44;100.00
60871;BME280;46714;50.118;14.462;2023-10-31T08:05:43;97384.72;;;11.43;100.00
60871;BME280;46714;50.118;14.462;2023-10-31T08:08:09;97382.00;;;11.43;100.00
60871;BME280;46714;50.118;14.462;2023-10-31T08:10:34;97377.66;;;11.42;100.00
60871;BME280;46714;50.118;14.462;2023-10-31T08:13:00;97368.38;;;11.43;100.00
60871;BME280;46714;50.118;14.462;2023-10-31T08:15:25;97368.69;;;11.46;100.00
60871;BME280;46714;50.118;14.462;2023-10-31T08:17:50;97362.16;;;11.47;100.00
60871;BME280;46714;50.118;14.462;2023-10-31T08:20:16;97369.53;;;11.52;100.00
60871;BME280;46714;50.118;14.462;2023-10-31T08:22:41;97354.84;;;11.58;100.00
60871;BME280;46714;50.118;14.462;2023-10-31T08:25:10;97375.03;;;11.62;100.00
60871;BME280;46714;50.118;14.462;2023-10-31T08:27:35;97404.47;;;11.65;100.00
60871;BME280;46714;50.118;14.462;2023-10-31T08:30:00;97413.75;;;11.64;100.00
60871;BME280;46714;50.118;14.462;2023-10-31T08:32:27;97432.81;;;11.64;100.00
60871;BME280;46714;50.118;14.462;2023-10-31T08:34:52;97462.25;;;11.62;100.00
60871;BME280;46714;50.118;14.462;2023-10-31T08:37:19;97466.88;;;11.62;100.00
60871;BME280;46714;50.118;14.462;2023-10-31T08:39:44;97483.50;;;11.60;100.00
60871;BME280;46714;50.118;14.462;2023-10-31T08:42:10;97497.91;;;11.56;100.00
60871;BME280;46714;50.118;14.462;2023-10-31T08:44:35;97503.31;;;11.50;100.00
60871;BME280;46714;50.118;14.462;2023-10-31T08:47:02;97507.13;;;11.49;100.00
60871;BME280;46714;50.118;14.462;2023-10-31T08:49:28;97515.03;;;11.51;100.00
60871;BME280;46714;50.118;14.462;2023-10-31T08:51:53;97503.56;;;11.49;100.00
60871;BME280;46714;50.118;14.462;2023-10-31T08:54:19;97507.13;;;11.49;100.00
60871;BME280;46714;50.118;14.462;2023-10-31T08:56:44;97512.84;;;11.48;100.00
60871;BME280;46714;50.118;14.462;2023-10-31T08:59:09;97519.09;;;11.48;100.00
60871;BME280;46714;50.118;14.462;2023-10-31T09:01:35;97515.28;;;11.49;100.00
60871;BME280;46714;50.118;14.462;2023-10-31T09:04:00;97520.19;;;11.47;100.00
60871;BME280;46714;50.118;14.462;2023-10-31T09:06:26;97527.53;;;11.47;100.00
60871;BME280;46714;50.118;14.462;2023-10-31T09:08:51;97523.75;;;11.48;100.00
60871;BME280;46714;50.118;14.462;2023-10-31T09:11:17;97522.66;;;11.49;100.00
60871;BME280;46714;50.118;14.462;2023-10-31T09:13:42;97528.09;;;11.49;100.00
60871;BME280;46714;50.118;14.462;2023-10-31T09:16:07;97537.09;;;11.49;100.00
60871;BME280;46714;50.118;14.462;2023-10-31T09:18:33;97538.44;;;11.47;99.32
60871;BME280;46714;50.118;14.462;2023-10-31T09:20:59;97548.84;;;11.50;100.00
60871;BME280;46714;50.118;14.462;2023-10-31T09:23:25;97544.19;;;11.50;100.00
60871;BME280;46714;50.118;14.462;2023-10-31T09:25:50;97552.38;;;11.50;100.00
60871;BME280;46714;50.118;14.462;2023-10-31T09:28:15;97542.84;;;11.53;100.00
60871;BME280;46714;50.118;14.462;2023-10-31T09:30:41;97536.88;;;11.56;100.00
60871;BME280;46714;50.118;14.462;2023-10-31T09:33:06;97533.34;;;11.61;100.00
60871;BME280;46714;50.118;14.462;2023-10-31T09:35:32;97531.44;;;11.61;100.00
60871;BME280;46714;50.118;14.462;2023-10-31T09:37:57;97531.75;;;11.65;100.00
60871;BME280;46714;50.118;14.462;2023-10-31T09:40:23;97524.13;;;11.67;100.00
60871;BME280;46714;50.118;14.462;2023-10-31T09:42:48;97530.16;;;11.69;100.00
60871;BME280;46714;50.118;14.462;2023-10-31T09:45:16;97520.88;;;11.70;100.00
60871;BME280;46714;50.118;14.462;2023-10-31T09:47:42;97505.09;;;11.72;99.41
60871;BME280;46714;50.118;14.462;2023-10-31T09:50:08;97495.56;;;11.74;99.50
60871;BME280;46714;50.118;14.462;2023-10-31T09:52:35;97497.78;;;11.78;97.91
60871;BME280;46714;50.118;14.462;2023-10-31T09:55:01;97504.84;;;11.79;98.94
60871;BME280;46714;50.118;14.462;2023-10-31T09:57:27;97498.34;;;11.80;96.68
60871;BME280;46714;50.118;14.462;2023-10-31T09:59:53;97488.81;;;11.82;98.38
60871;BME280;46714;50.118;14.462;2023-10-31T10:02:18;97489.91;;;11.86;97.63
60871;BME280;46714;50.118;14.462;2023-10-31T10:04:44;97494.88;;;11.89;98.96
60871;BME280;46714;50.118;14.462;2023-10-31T10:07:09;97499.53;;;11.94;99.14
60871;BME280;46714;50.118;14.462;2023-10-31T10:09:40;97492.72;;;11.97;98.84
60871;BME280;46714;50.118;14.462;2023-10-31T10:12:05;97505.00;;;11.99;98.64
60871;BME280;46714;50.118;14.462;2023-10-31T10:14:31;97510.47;;;11.99;96.08
60871;BME280;46714;50.118;14.462;2023-10-31T10:16:57;97516.72;;;12.00;93.45
60871;BME280;46714;50.118;14.462;2023-10-31T10:19:23;97509.91;;;12.02;95.84
60871;BME280;46714;50.118;14.462;2023-10-31T10:21:50;97498.75;;;12.04;95.37
60871;BME280;46714;50.118;14.462;2023-10-31T10:24:20;97491.13;;;12.06;92.20
60871;BME280;46714;50.118;14.462;2023-10-31T10:26:47;97480.78;;;12.08;94.60
60871;BME280;46714;50.118;14.462;2023-10-31T10:29:13;97481.91;;;12.12;95.34
60871;BME280;46714;50.118;14.462;2023-10-31T10:31:39;97476.72;;;12.15;94.58
60871;BME280;46714;50.118;14.462;2023-10-31T10:34:05;97490.34;;;12.15;94.39
60871;BME280;46714;50.118;14.462;2023-10-31T10:36:32;97493.63;;;12.12;92.68
60871;BME280;46714;50.118;14.462;2023-10-31T10:38:58;97492.25;;;12.15;93.23
60871;BME280;46714;50.118;14.462;2023-10-31T10:41:25;97488.69;;;12.09;93.09
60871;BME280;46714;50.118;14.462;2023-10-31T10:44:05;97495.22;;;12.08;92.99
60871;BME280;46714;50.118;14.462;2023-10-31T10:46:36;97503.41;;;12.08;92.00
60871;BME280;46714;50.118;14.462;2023-10-31T10:49:04;97506.94;;;12.09;94.59
60871;BME280;46714;50.118;14.462;2023-10-31T10:51:39;97504.50;;;12.07;92.55
60871;BME280;46714;50.118;14.462;2023-10-31T10:54:15;97489.53;;;12.10;94.10
60871;BME280;46714;50.118;14.462;2023-10-31T10:56:46;97478.88;;;12.13;94.51
60871;BME280;46714;50.118;14.462;2023-10-31T10:59:21;97493.88;;;12.16;95.61
60871;BME280;46714;50.118;14.462;2023-10-31T11:02:03;97523.91;;;12.16;95.42
60871;BME280;46714;50.118;14.462;2023-10-31T11:04:31;97557.97;;;12.13;92.02
60871;BME280;46714;50.118;14.462;2023-10-31T11:06:58;97567.53;;;12.11;93.51
60871;BME280;46714;50.118;14.462;2023-10-31T11:09:24;97573.22;;;12.09;93.84
60871;BME280;46714;50.118;14.462;2023-10-31T11:11:50;97571.03;;;12.06;90.98
60871;BME280;46714;50.118;14.462;2023-10-31T11:14:16;97591.47;;;12.04;91.30
60871;BME280;46714;50.118;14.462;2023-10-31T11:16:53;97589.00;;;12.02;90.12
60871;BME280;46714;50.118;14.462;2023-10-31T11:19:20;97577.03;;;12.03;92.02
60871;BME280;46714;50.118;14.462;2023-10-31T11:21:59;97583.84;;;12.06;91.38
60871;BME280;46714;50.118;14.462;2023-10-31T11:24:26;97592.31;;;12.09;90.46
60871;BME280;46714;50.118;14.462;2023-10-31T11:26:53;97588.53;;;12.10;90.61
60871;BME280;46714;50.118;14.462;2023-10-31T11:29:24;97589.09;;;12.12;91.78
60871;BME280;46714;50.118;14.462;2023-10-31T11:31:49;97613.38;;;12.14;89.96
60871;BME280;46714;50.118;14.462;2023-10-31T11:34:16;97624.81;;;12.16;90.38
60871;BME280;46714;50.118;14.462;2023-10-31T11:36:44;97628.41;;;12.17;89.55
60871;BME280;46714;50.118;14.462;2023-10-31T11:39:10;97612.28;;;12.15;89.42
60871;BME280;46714;50.118;14.462;2023-10-31T11:41:40;97605.69;;;12.11;90.06
60871;BME280;46714;50.118;14.462;2023-10-31T11:44:14;97601.59;;;12.08;90.40
60871;BME280;46714;50.118;14.462;2023-10-31T11:46:40;97594.22;;;12.09;91.80
60871;BME280;46714;50.118;14.462;2023-10-31T11:49:05;97593.44;;;12.13;93.42
60871;BME280;46714;50.118;14.462;2023-10-31T11:51:32;97583.38;;;12.14;90.83
60871;BME280;46714;50.118;14.462;2023-10-31T11:53:58;97594.00;;;12.15;93.15
60871;BME280;46714;50.118;14.462;2023-10-31T11:56:26;97597.28;;;12.18;91.71
60871;BME280;46714;50.118;14.462;2023-10-31T11:58:55;97603.00;;;12.16;93.54
60871;BME280;46714;50.118;14.462;2023-10-31T12:01:25;97618.56;;;12.15;92.93
60871;BME280;46714;50.118;14.462;2023-10-31T12:03:51;97617.47;;;12.17;93.74
60871;BME280;46714;50.118;14.462;2023-10-31T12:06:16;97620.22;;;12.17;93.68
60871;BME280;46714;50.118;14.462;2023-10-31T12:08:43;97625.91;;;12.15;94.78
60871;BME280;46714;50.118;14.462;2023-10-31T12:11:16;97621.56;;;12.14;95.71
60871;BME280;46714;50.118;14.462;2023-10-31T12:13:51;97619.09;;;12.12;95.15
60871;BME280;46714;50.118;14.462;2023-10-31T12:16:17;97618.28;;;12.12;94.75
60871;BME280;46714;50.118;14.462;2023-10-31T12:18:43;97624.22;;;12.09;95.01
60871;BME280;46714;50.118;14.462;2023-10-31T12:21:08;97633.50;;;12.08;96.49
60871;BME280;46714;50.118;14.462;2023-10-31T12:23:35;97627.75;;;12.04;94.19
60871;BME280;46714;50.118;14.462;2023-10-31T12:26:01;97634.28;;;11.98;92.48
60871;BME280;46714;50.118;14.462;2023-10-31T12:28:27;97626.88;;;11.93;92.11
60871;BME280;46714;50.118;14.462;2023-10-31T12:30:55;97623.84;;;11.90;91.25
60871;BME280;46714;50.118;14.462;2023-10-31T12:33:24;97619.13;;;11.85;91.80
60871;BME280;46714;50.118;14.462;2023-10-31T12:35:52;97618.31;;;11.85;92.39
60871;BME280;46714;50.118;14.462;2023-10-31T12:38:22;97627.56;;;11.84;93.63